Time;durP1;ratioP1;P1;durP2;ratioP2;P2;SDS_P1;SDS_P2;PMS_P1;PMS_P2;Temp;Humidity;BMP_temperature;BMP_pressure;BME280_temperature;BME280_humidity;BME280_pressure;Samples;Min_cycle;Max_cycle;Signal;HPM_P1;HPM_P2
2022/05/02 00:00:41;;;;;;;18.67;12.88;;;;;;;9.47;62.22;102072.53;7399911;19;20022;-61
2022/05/02 00:03:11;;;;;;;15.10;12.55;;;;;;;9.35;62.89;102071.88;7401415;19;20010;-61
2022/05/02 00:05:40;;;;;;;17.02;12.68;;;;;;;9.36;62.55;102064.91;7403432;19;20011;-60
2022/05/02 00:08:10;;;;;;;19.60;12.90;;;;;;;9.31;63.13;102070.22;7399764;19;20083;-61
2022/05/02 00:10:39;;;;;;;17.67;12.35;;;;;;;9.37;62.72;102055.28;7393805;19;20015;-61
2022/05/02 00:13:10;;;;;;;16.02;12.13;;;;;;;9.47;62.18;102068.16;7392106;19;20021;-60
2022/05/02 00:15:40;;;;;;;18.23;12.40;;;;;;;9.33;62.50;102065.81;7391593;19;20010;-61
2022/05/02 00:18:09;;;;;;;15.48;12.18;;;;;;;9.33;62.22;102059.72;7391383;19;20007;-61
2022/05/02 00:20:41;;;;;;;17.05;12.68;;;;;;;9.30;63.38;102063.25;7391999;19;20022;-60
2022/05/02 00:23:11;;;;;;;17.40;12.40;;;;;;;9.14;63.78;102052.22;7392194;19;20388;-62
2022/05/02 00:25:40;;;;;;;16.70;11.98;;;;;;;9.10;63.40;102050.56;7392865;19;20022;-61
2022/05/02 00:28:16;;;;;;;16.58;11.75;;;;;;;9.23;63.57;102051.19;7393083;19;20022;-61
2022/05/02 00:30:46;;;;;;;16.60;12.70;;;;;;;9.26;63.26;102048.50;7391714;19;20352;-60
2022/05/02 00:33:15;;;;;;;15.43;11.85;;;;;;;9.31;63.39;102046.69;7392271;19;20038;-61
2022/05/02 00:35:44;;;;;;;16.23;11.73;;;;;;;9.23;63.29;102039.88;7393464;19;20030;-60
2022/05/02 00:38:12;;;;;;;19.52;12.60;;;;;;;9.22;63.94;102032.91;7390739;19;20014;-60
2022/05/02 00:40:42;;;;;;;17.10;13.02;;;;;;;9.17;63.37;102040.84;7392191;19;20014;-60
2022/05/02 00:43:11;;;;;;;17.60;12.43;;;;;;;9.13;64.57;102033.94;7392299;19;20094;-61
2022/05/02 00:45:43;;;;;;;17.48;12.65;;;;;;;9.09;63.85;102027.06;7392045;19;20015;-61
2022/05/02 00:48:12;;;;;;;16.43;12.57;;;;;;;9.09;64.68;102027.06;7390620;19;20046;-61
2022/05/02 00:50:44;;;;;;;18.73;12.63;;;;;;;9.09;65.60;102029.66;7391354;19;20018;-60
2022/05/02 00:53:15;;;;;;;16.63;12.03;;;;;;;9.08;64.69;102026.16;7391855;19;20056;-61
2022/05/02 00:55:45;;;;;;;17.40;12.90;;;;;;;9.00;64.14;102022.84;7391912;19;20030;-61
2022/05/02 00:58:16;;;;;;;17.20;12.90;;;;;;;9.13;64.01;102026.09;7389975;19;20007;-61
2022/05/02 01:00:47;;;;;;;18.00;12.98;;;;;;;9.02;65.19;102022.81;7391404;19;20018;-61
2022/05/02 01:03:17;;;;;;;15.07;12.48;;;;;;;8.99;64.92;102023.75;7391224;19;20026;-59
2022/05/02 01:08:33;;;;;;;20.17;13.27;;;;;;;8.95;65.00;102024.69;7392282;19;20018;-60
2022/05/02 01:11:03;;;;;;;17.48;13.02;;;;;;;8.91;65.75;102023.88;7390919;19;20026;-61
2022/05/02 01:13:40;;;;;;;20.95;13.80;;;;;;;8.96;64.49;102027.25;7390676;19;20018;-60
2022/05/02 01:16:14;;;;;;;19.27;13.10;;;;;;;8.94;64.43;102023.84;7390807;19;20018;-60
2022/05/02 01:18:44;;;;;;;20.63;13.82;;;;;;;9.02;65.11;102023.69;7389087;19;20010;-60
2022/05/02 01:21:17;;;;;;;18.13;13.45;;;;;;;8.87;64.66;102024.84;7389870;19;20021;-59
2022/05/02 01:23:49;;;;;;;15.88;13.00;;;;;;;8.72;65.56;102023.31;7389966;19;20015;-60
2022/05/02 01:26:18;;;;;;;20.25;13.77;;;;;;;8.87;65.15;102026.56;7391561;19;20503;-58
2022/05/02 01:28:48;;;;;;;17.67;13.57;;;;;;;8.92;64.45;102025.59;7391406;19;20503;-58
2022/05/02 01:31:18;;;;;;;19.27;13.35;;;;;;;8.87;64.54;102016.09;7390464;19;20014;-58
2022/05/02 01:33:48;;;;;;;17.50;13.70;;;;;;;8.78;64.77;102024.97;7390191;19;20131;-58
2022/05/02 01:36:21;;;;;;;20.02;13.15;;;;;;;8.92;64.59;102022.13;7390349;19;20056;-59
2022/05/02 01:38:51;;;;;;;17.67;13.23;;;;;;;8.78;64.79;102024.97;7388695;19;20019;-60
2022/05/02 01:41:20;;;;;;;22.52;13.68;;;;;;;8.81;64.95;102011.84;7389561;19;20445;-62
2022/05/02 01:43:49;;;;;;;19.33;14.20;;;;;;;8.89;64.53;102014.34;7389872;19;20018;-61
2022/05/02 01:46:18;;;;;;;19.90;14.25;;;;;;;8.83;64.83;102013.56;7390798;19;20333;-61
2022/05/02 01:48:47;;;;;;;19.17;14.18;;;;;;;8.88;64.60;102015.22;7390093;19;20014;-59
2022/05/02 01:51:16;;;;;;;19.80;13.40;;;;;;;8.85;64.72;102023.97;7389050;19;20018;-58
2022/05/02 01:53:47;;;;;;;20.10;13.50;;;;;;;8.75;65.99;102010.19;7389157;19;20018;-60
2022/05/02 01:56:16;;;;;;;21.52;14.25;;;;;;;8.82;65.78;102011.81;7388101;19;20018;-60
2022/05/02 01:58:45;;;;;;;17.95;13.40;;;;;;;8.72;65.49;102014.63;7385723;19;20014;-56
2022/05/02 02:01:14;;;;;;;19.42;14.32;;;;;;;8.73;65.49;102008.53;7388573;19;20018;-60
2022/05/02 02:03:43;;;;;;;17.55;13.68;;;;;;;8.71;65.61;102005.94;7388427;19;20015;-61
2022/05/02 02:06:10;;;;;;;17.55;14.52;;;;;;;8.62;65.43;102006.94;7388838;19;20014;-60
2022/05/02 02:08:39;;;;;;;20.20;14.77;;;;;;;8.53;66.59;102008.88;7389421;19;20074;-60
2022/05/02 02:11:12;;;;;;;21.02;15.65;;;;;;;8.53;65.99;102007.09;7388118;19;20018;-61
2022/05/02 02:13:42;;;;;;;20.73;14.55;;;;;;;8.44;66.60;102005.50;7389037;19;20023;-60
2022/05/02 02:16:13;;;;;;;20.23;13.90;;;;;;;8.59;65.75;102009.59;7391356;19;20017;-57
2022/05/02 02:18:43;;;;;;;20.85;15.00;;;;;;;8.43;66.02;102005.50;7389715;19;20376;-60
2022/05/02 02:21:13;;;;;;;22.15;15.85;;;;;;;8.39;66.19;102004.69;7390610;19;20062;-59
2022/05/02 02:23:44;;;;;;;21.80;15.50;;;;;;;8.37;66.41;102003.84;7390337;19;20025;-59
2022/05/02 02:26:17;;;;;;;22.27;14.52;;;;;;;8.36;66.39;102007.34;7388977;19;20011;-60
2022/05/02 02:28:46;;;;;;;18.50;15.00;;;;;;;8.30;66.71;101999.63;7389150;19;20018;-60
2022/05/02 02:31:15;;;;;;;19.42;15.77;;;;;;;8.38;66.60;102002.97;7387351;19;20022;-60
2022/05/02 02:33:44;;;;;;;22.25;16.05;;;;;;;8.30;66.66;101997.00;7387730;19;20029;-61
2022/05/02 02:36:13;;;;;;;19.90;15.32;;;;;;;8.38;66.50;102000.38;7388992;19;20022;-60
2022/05/02 02:38:42;;;;;;;20.08;14.63;;;;;;;8.32;66.69;101996.09;7385643;19;20026;-60
2022/05/02 02:41:11;;;;;;;20.10;14.50;;;;;;;8.40;66.60;101989.88;7387162;19;20075;-60
2022/05/02 02:43:42;;;;;;;20.88;15.25;;;;;;;8.36;66.56;101991.66;7388000;19;20018;-61
2022/05/02 02:46:11;;;;;;;23.25;14.73;;;;;;;8.35;66.76;101987.31;7388098;19;20025;-60
2022/05/02 02:48:40;;;;;;;22.52;15.00;;;;;;;8.35;67.46;101986.47;7388212;19;20017;-60
2022/05/02 02:51:08;;;;;;;21.27;14.95;;;;;;;8.30;67.43;101983.94;7387104;19;20722;-61
2022/05/02 02:53:37;;;;;;;23.48;15.10;;;;;;;8.30;66.63;101989.16;7387267;19;20018;-60
2022/05/02 02:56:06;;;;;;;24.25;15.70;;;;;;;8.25;66.89;101978.81;7387504;19;20022;-60
2022/05/02 02:58:35;;;;;;;22.02;15.50;;;;;;;8.17;67.38;101977.16;7385979;19;20014;-59
2022/05/02 03:01:07;;;;;;;22.33;15.05;;;;;;;8.40;66.97;101977.69;7387085;19;20014;-61
2022/05/02 03:03:36;;;;;;;19.25;14.75;;;;;;;8.31;67.63;101978.69;7387014;19;20018;-60
2022/05/02 03:06:04;;;;;;;23.08;15.00;;;;;;;8.27;67.56;101977.00;7387330;19;20026;-60
2022/05/02 03:08:36;;;;;;;21.17;15.23;;;;;;;8.26;66.96;101970.06;7387428;19;20098;-61
2022/05/02 03:11:05;;;;;;;22.67;15.03;;;;;;;8.25;67.64;101977.94;7386095;19;20739;-60
2022/05/02 03:13:36;;;;;;;21.20;15.20;;;;;;;8.17;67.93;101970.22;7387012;19;20330;-61
2022/05/02 03:16:10;;;;;;;24.73;17.75;;;;;;;8.18;68.42;101966.75;7387401;19;20019;-59
2022/05/02 03:18:39;;;;;;;22.10;15.40;;;;;;;8.20;68.05;101970.16;7386400;19;20035;-59
2022/05/02 03:21:08;;;;;;;20.00;15.32;;;;;;;8.19;67.76;101968.44;7386591;19;20010;-57
2022/05/02 03:23:36;;;;;;;21.38;15.48;;;;;;;8.07;67.38;101971.25;7386515;19;20399;-57
2022/05/02 03:26:05;;;;;;;21.75;15.73;;;;;;;8.14;68.46;101970.28;7386456;19;20018;-57
2022/05/02 03:28:34;;;;;;;22.98;16.05;;;;;;;8.21;68.43;101971.03;7389142;19;20019;-60
2022/05/02 03:31:03;;;;;;;22.75;16.67;;;;;;;8.25;67.79;101973.59;7386579;19;20011;-60
2022/05/02 03:33:35;;;;;;;20.92;15.93;;;;;;;8.18;67.18;101960.63;7387075;19;20014;-60
2022/05/02 03:36:04;;;;;;;22.67;14.70;;;;;;;8.09;68.22;101962.50;7386838;19;20499;-60
2022/05/02 03:38:33;;;;;;;21.48;15.82;;;;;;;8.15;67.26;101971.97;7385757;19;20340;-59
2022/05/02 03:41:02;;;;;;;23.83;15.70;;;;;;;8.21;66.95;101961.47;7386494;19;20017;-61
2022/05/02 03:43:30;;;;;;;23.88;14.60;;;;;;;8.21;67.13;101968.41;7386069;19;20115;-60
2022/05/02 03:45:59;;;;;;;21.75;15.43;;;;;;;8.23;67.67;101961.44;7385842;19;20033;-59
2022/05/02 03:48:29;;;;;;;21.80;15.02;;;;;;;8.20;67.42;101964.94;7385715;19;20014;-60
2022/05/02 03:51:00;;;;;;;20.83;15.20;;;;;;;8.21;66.92;101961.47;7385331;19;20051;-60
2022/05/02 03:53:29;;;;;;;20.23;15.27;;;;;;;8.10;67.87;101960.75;7385075;19;20405;-59
2022/05/02 03:55:58;;;;;;;19.77;14.45;;;;;;;8.13;68.39;101963.31;7385055;19;20015;-56
2022/05/02 03:58:27;;;;;;;22.05;15.05;;;;;;;8.12;68.38;101964.19;7385205;19;20011;-57
2022/05/02 04:00:56;;;;;;;22.13;14.52;;;;;;;8.18;68.09;101968.47;7384950;19;20017;-56
2022/05/02 04:03:25;;;;;;;20.13;14.68;;;;;;;8.03;69.48;101966.97;7386003;19;20349;-60
2022/05/02 04:05:54;;;;;;;23.45;15.27;;;;;;;8.18;68.16;101961.50;7386700;19;20015;-57
2022/05/02 04:08:25;;;;;;;22.27;15.57;;;;;;;8.32;67.48;101971.72;7386904;19;20025;-58
2022/05/02 04:10:54;;;;;;;21.95;15.13;;;;;;;7.97;69.52;101966.16;7386206;19;20017;-58
2022/05/02 04:13:23;;;;;;;22.13;15.20;;;;;;;7.96;69.70;101968.78;7385389;19;20021;-59
2022/05/02 04:15:52;;;;;;;22.23;16.50;;;;;;;7.95;70.01;101970.56;7386295;19;20014;-58
2022/05/02 04:18:21;;;;;;;24.35;15.63;;;;;;;8.19;69.20;101964.97;7385526;19;20022;-58
2022/05/02 04:20:50;;;;;;;23.25;16.05;;;;;;;8.24;68.71;101971.84;7385289;19;20137;-56
2022/05/02 04:23:18;;;;;;;23.33;15.77;;;;;;;8.12;69.43;101964.19;7394647;19;20019;-57
2022/05/02 04:25:50;;;;;;;21.30;15.65;;;;;;;8.11;69.03;101963.34;7393680;19;20019;-59
2022/05/02 04:28:19;;;;;;;23.23;16.23;;;;;;;8.14;68.90;101965.91;7394128;19;20006;-59
2022/05/02 04:30:48;;;;;;;22.38;16.40;;;;;;;8.19;68.66;101965.81;7393138;19;20364;-57
2022/05/02 04:33:17;;;;;;;23.30;16.38;;;;;;;8.18;69.21;101964.13;7393091;19;20029;-58
2022/05/02 04:35:46;;;;;;;22.92;16.08;;;;;;;8.16;69.00;101971.09;7393672;19;20017;-59
2022/05/02 04:38:16;;;;;;;23.55;16.10;;;;;;;8.18;69.30;101961.50;7393988;19;20010;-59
2022/05/02 04:40:45;;;;;;;23.85;16.73;;;;;;;8.19;69.00;101973.66;7392185;19;20117;-59
2022/05/02 04:43:17;;;;;;;27.95;16.77;;;;;;;8.17;69.40;101967.63;7392835;19;20021;-61
2022/05/02 04:45:46;;;;;;;27.25;17.25;;;;;;;8.16;69.65;101970.25;7393334;19;20018;-60
2022/05/02 04:48:15;;;;;;;24.17;17.23;;;;;;;8.12;69.49;101972.91;7393007;19;20010;-58
2022/05/02 04:50:43;;;;;;;23.08;16.77;;;;;;;8.12;69.88;101972.03;7392317;19;20007;-60
2022/05/02 04:53:12;;;;;;;27.08;17.17;;;;;;;8.17;69.80;101971.94;7392467;19;20479;-59
2022/05/02 04:55:42;;;;;;;31.95;18.20;;;;;;;8.17;69.32;101966.72;7391861;19;20028;-55
2022/05/02 04:58:10;;;;;;;28.83;18.15;;;;;;;8.17;69.55;101967.63;7391883;19;20015;-57
2022/05/02 05:00:42;;;;;;;28.05;16.95;;;;;;;8.14;69.63;101968.50;7392211;19;20021;-58
2022/05/02 05:03:11;;;;;;;25.70;17.23;;;;;;;8.14;69.92;101975.50;7391981;19;20015;-57
2022/05/02 05:05:40;;;;;;;21.90;16.40;;;;;;;8.05;70.63;101975.63;7392449;19;20025;-60
2022/05/02 05:08:10;;;;;;;30.75;17.20;;;;;;;8.13;70.61;101977.22;7392754;19;20022;-59
2022/05/02 05:10:43;;;;;;;23.98;16.83;;;;;;;8.26;70.07;101979.66;7391333;19;20018;-59
2022/05/02 05:13:18;;;;;;;23.40;16.48;;;;;;;8.31;69.91;101973.47;7392136;19;20018;-60
2022/05/02 05:16:24;;;;;;;25.20;16.95;;;;;;;8.40;69.99;101971.59;7391912;19;20018;-58
2022/05/02 05:19:05;;;;;;;25.90;15.43;;;;;;;8.42;69.40;101975.88;7391021;19;20015;-60
2022/05/02 05:21:43;;;;;;;24.63;16.80;;;;;;;8.53;69.42;101969.69;7391680;19;20018;-57
2022/05/02 05:24:53;;;;;;;23.00;15.38;;;;;;;8.51;69.37;101974.06;7391076;19;20489;-58
2022/05/02 05:27:40;;;;;;;25.80;17.00;;;;;;;8.66;69.09;101979.03;7391847;19;20018;-59
2022/05/02 05:30:10;;;;;;;23.98;16.88;;;;;;;8.69;69.13;101971.13;7391498;19;20360;-59
2022/05/02 05:32:48;;;;;;;24.20;16.80;;;;;;;8.85;68.99;101976.06;7392451;19;20019;-60
2022/05/02 05:35:25;;;;;;;24.27;16.85;;;;;;;8.86;69.59;101968.22;7389519;19;20019;-61
2022/05/02 05:38:02;;;;;;;29.48;17.60;;;;;;;9.03;68.29;101973.13;7391748;19;20078;-59
2022/05/02 05:40:36;;;;;;;23.88;16.58;;;;;;;9.01;67.60;101980.13;7389106;19;20508;-61
2022/05/02 05:43:11;;;;;;;21.50;16.00;;;;;;;9.06;66.34;101975.66;7390719;19;20020;-61
2022/05/02 05:45:51;;;;;;;20.08;14.98;;;;;;;9.05;66.06;101975.69;7390857;19;20015;-61
2022/05/02 05:48:31;;;;;;;24.13;15.07;;;;;;;9.21;66.11;101974.50;7391047;19;20014;-62
2022/05/02 05:51:13;;;;;;;24.55;16.63;;;;;;;9.28;67.57;101973.47;7390444;19;20448;-60
2022/05/02 05:53:53;;;;;;;23.63;15.75;;;;;;;9.34;66.18;101975.09;7388578;19;20023;-61
2022/05/02 05:56:36;;;;;;;21.10;15.65;;;;;;;9.45;65.74;101980.13;7390063;19;20071;-61
2022/05/02 05:59:09;;;;;;;20.35;14.82;;;;;;;9.58;64.91;101980.75;7389340;19;20702;-62
2022/05/02 06:01:51;;;;;;;25.10;15.65;;;;;;;9.62;65.78;101979.78;7391601;19;20052;-61
2022/05/02 06:04:25;;;;;;;22.70;14.93;;;;;;;9.68;64.58;101982.25;7390357;19;20022;-62
2022/05/02 06:06:56;;;;;;;23.77;14.15;;;;;;;9.80;64.17;101981.13;7392123;19;20119;-63
2022/05/02 06:09:28;;;;;;;19.05;14.50;;;;;;;9.91;64.45;101983.50;7392017;19;20344;-59
2022/05/02 06:11:59;;;;;;;25.15;14.32;;;;;;;9.90;63.64;101981.78;7390960;19;20010;-59
2022/05/02 06:14:31;;;;;;;18.75;14.23;;;;;;;10.04;64.79;101984.94;7391274;19;20019;-61
2022/05/02 06:19:51;;;;;;;21.23;14.10;;;;;;;10.03;64.25;101978.84;7389459;19;20022;-61
2022/05/02 06:22:20;;;;;;;19.65;13.73;;;;;;;10.08;63.01;101985.75;7393173;19;20011;-62
2022/05/02 06:24:50;;;;;;;21.80;14.30;;;;;;;10.28;63.24;101986.13;7389270;19;20051;-60
2022/05/02 06:27:19;;;;;;;18.77;13.68;;;;;;;10.17;63.43;101977.66;7390092;19;20015;-58
2022/05/02 06:29:48;;;;;;;19.88;13.85;;;;;;;10.36;62.89;101981.59;7389891;19;20023;-60
2022/05/02 06:32:18;;;;;;;19.20;14.57;;;;;;;10.50;62.68;101988.25;7391159;19;20395;-59
2022/05/02 06:34:51;;;;;;;17.00;13.48;;;;;;;10.61;61.93;101972.25;7389408;19;20018;-61
2022/05/02 06:37:32;;;;;;;19.10;13.43;;;;;;;10.69;60.95;101975.53;7390267;19;20019;-59
2022/05/02 06:40:09;;;;;;;16.90;12.75;;;;;;;10.85;60.84;101979.47;7388359;19;20104;-59
2022/05/02 06:42:41;;;;;;;19.23;12.80;;;;;;;10.90;62.01;101979.34;7390854;19;20470;-57
2022/05/02 06:45:22;;;;;;;17.90;12.47;;;;;;;11.00;59.46;101978.19;7387696;19;20022;-59
2022/05/02 06:48:19;;;;;;;14.05;11.70;;;;;;;11.18;58.56;101984.69;7390273;19;20811;-60
2022/05/02 06:50:58;;;;;;;14.05;11.52;;;;;;;11.24;57.86;101976.63;7389056;19;20007;-60
2022/05/02 06:53:45;;;;;;;17.25;11.73;;;;;;;11.32;58.56;101972.94;7388946;19;20018;-59
2022/05/02 06:56:22;;;;;;;22.02;12.80;;;;;;;11.43;58.31;101978.72;7389702;19;20015;-60
2022/05/02 06:59:02;;;;;;;15.18;11.57;;;;;;;11.54;59.02;101973.19;7390979;19;20010;-60
2022/05/02 07:01:42;;;;;;;13.85;11.20;;;;;;;11.55;57.51;101975.75;7389970;19;20014;-60
2022/05/02 07:04:37;;;;;;;19.20;11.50;;;;;;;11.74;55.98;101972.56;7389002;19;20025;-60
2022/05/02 07:07:27;;;;;;;14.05;10.10;;;;;;;11.91;55.89;101974.69;7389467;19;20019;-58
2022/05/02 07:10:04;;;;;;;13.45;9.90;;;;;;;11.84;53.83;101976.63;7388782;19;20014;-56
2022/05/02 07:12:34;;;;;;;13.23;9.73;;;;;;;11.84;53.87;101971.38;7388979;19;20015;-59
2022/05/02 07:15:07;;;;;;;12.73;10.00;;;;;;;11.98;53.70;101970.09;7388191;19;20360;-59
2022/05/02 07:18:05;;;;;;;13.57;9.40;;;;;;;12.11;53.39;101971.47;7390885;19;20025;-60
2022/05/02 07:20:45;;;;;;;16.15;10.90;;;;;;;12.23;53.27;101978.91;7387323;19;20408;-59
2022/05/02 07:23:32;;;;;;;14.65;9.82;;;;;;;12.19;52.99;101976.44;7389834;19;20018;-60
2022/05/02 07:26:06;;;;;;;14.98;10.45;;;;;;;12.22;51.87;101974.59;7389954;19;20019;-60
2022/05/02 07:28:44;;;;;;;14.10;10.52;;;;;;;12.22;51.57;101976.34;7389588;19;20044;-57
2022/05/02 07:31:15;;;;;;;13.98;10.10;;;;;;;12.24;51.76;101972.75;7389114;19;20018;-60
2022/05/02 07:33:44;;;;;;;13.30;10.60;;;;;;;12.49;51.77;101976.34;7388183;19;20037;-58
2022/05/02 07:36:17;;;;;;;15.52;10.48;;;;;;;12.49;51.17;101966.69;7389343;19;20015;-58
2022/05/02 07:38:53;;;;;;;14.48;10.25;;;;;;;12.66;50.75;101974.00;7389035;19;20018;-60
2022/05/02 07:41:26;;;;;;;18.65;10.52;;;;;;;12.91;50.07;101981.91;7387999;19;20019;-59
2022/05/02 07:44:01;;;;;;;20.23;10.95;;;;;;;12.73;49.99;101978.13;7388062;19;20044;-59
2022/05/02 07:46:32;;;;;;;15.25;10.57;;;;;;;12.68;50.48;101980.09;7388738;19;20013;-58
2022/05/02 07:49:04;;;;;;;16.60;10.90;;;;;;;12.90;50.05;101980.19;7388699;19;20037;-60
2022/05/02 07:51:33;;;;;;;12.73;9.97;;;;;;;12.94;48.63;101989.69;7389112;19;20019;-60
2022/05/02 07:54:06;;;;;;;15.77;10.65;;;;;;;13.04;49.23;101982.31;7387911;19;20278;-57
2022/05/02 07:56:35;;;;;;;13.70;10.05;;;;;;;13.18;49.03;101986.22;7389289;19;20026;-60
2022/05/02 07:59:04;;;;;;;15.63;10.52;;;;;;;13.24;48.62;101989.50;7395266;19;20026;-59
2022/05/02 08:01:33;;;;;;;14.50;10.27;;;;;;;13.26;48.29;101989.44;7395974;19;20021;-59
2022/05/02 08:04:02;;;;;;;16.55;10.30;;;;;;;13.33;48.21;101988.28;7394397;19;20010;-59
2022/05/02 08:06:57;;;;;;;11.65;10.25;;;;;;;13.27;49.09;101985.91;7396149;19;20019;-59
2022/05/02 08:09:59;;;;;;;31.88;12.55;;;;;;;13.41;49.45;101982.75;7394127;19;20015;-61
2022/05/02 08:12:30;;;;;;;13.35;10.55;;;;;;;13.55;48.22;101987.53;7395380;19;20014;-61
2022/05/02 08:15:05;;;;;;;16.30;11.30;;;;;;;13.25;48.32;101985.09;7393421;19;20074;-61
2022/05/02 08:17:54;;;;;;;13.00;10.63;;;;;;;13.54;48.08;101991.94;7396485;19;20025;-61
2022/05/02 08:20:28;;;;;;;17.90;11.93;;;;;;;13.60;48.10;101975.03;7393508;19;20018;-62
2022/05/02 08:28:52;;;;;;;21.55;10.30;;;;;;;13.93;47.68;101967.59;7395741;19;19922;-62
2022/05/02 08:31:23;;;;;;;16.13;10.77;;;;;;;13.94;46.19;101974.59;7396827;19;20011;-61
2022/05/02 08:34:01;;;;;;;15.05;11.60;;;;;;;13.72;46.55;101977.19;7394556;19;20376;-61
2022/05/02 08:36:37;;;;;;;16.23;11.88;;;;;;;13.98;46.32;101976.19;7395710;19;20023;-60
2022/05/02 08:39:07;;;;;;;14.32;11.07;;;;;;;13.86;45.77;101981.06;7395264;19;20014;-60
2022/05/02 08:42:27;;;;;;;13.27;10.80;;;;;;;14.10;46.09;101966.91;7394578;19;20018;-62
2022/05/02 08:45:29;;;;;;;15.80;10.80;;;;;;;14.04;46.31;101974.19;7390632;19;20018;-61
2022/05/02 08:48:43;;;;;;;16.13;11.47;;;;;;;14.27;45.87;101965.34;7395441;19;20022;-61
2022/05/02 08:51:42;;;;;;;13.23;11.40;;;;;;;14.28;45.63;101967.06;7393850;19;20258;-61
2022/05/02 08:54:37;;;;;;;15.50;11.98;;;;;;;14.50;44.66;101964.41;7393090;19;20014;-60
2022/05/02 08:57:36;;;;;;;21.42;11.88;;;;;;;14.68;44.95;101963.63;7393938;19;20019;-61
2022/05/02 09:00:11;;;;;;;22.10;12.52;;;;;;;14.75;45.63;101963.38;7391835;19;20026;-61
2022/05/02 09:03:25;;;;;;;15.13;11.38;;;;;;;14.75;45.28;101961.59;7393883;19;20018;-61
2022/05/02 09:06:20;;;;;;;18.48;11.82;;;;;;;14.47;44.58;101959.22;7388811;19;20325;-63
2022/05/02 09:09:37;;;;;;;14.27;11.23;;;;;;;14.85;45.10;101964.69;7392889;19;20481;-62
2022/05/02 09:12:44;;;;;;;16.38;12.52;;;;;;;15.35;43.56;101961.53;7392963;19;20078;-64
2022/05/02 09:15:15;;;;;;;15.90;12.48;;;;;;;15.27;42.83;101962.81;7391542;19;20018;-63
2022/05/02 09:18:29;;;;;;;15.48;12.43;;;;;;;14.81;44.08;101950.75;7392486;19;20025;-64
2022/05/02 09:21:01;;;;;;;15.43;12.02;;;;;;;14.38;43.98;101960.47;7391057;19;20471;-63
2022/05/02 09:24:04;;;;;;;29.52;12.93;;;;;;;15.35;43.02;101960.69;7392447;19;20023;-65
2022/05/02 09:27:02;;;;;;;17.83;11.77;;;;;;;14.45;44.46;101951.38;7391539;19;20087;-63
2022/05/02 09:30:04;;;;;;;14.10;10.90;;;;;;;14.81;44.65;101947.25;7396006;19;20010;-64
2022/05/02 09:32:47;;;;;;;60.65;15.27;;;;;;;15.51;43.23;101955.56;7394427;19;20025;-63
2022/05/02 09:35:25;;;;;;;19.58;12.43;;;;;;;15.66;41.48;101953.97;7391908;19;20015;-64
2022/05/02 09:38:26;;;;;;;19.95;11.68;;;;;;;15.66;41.13;101956.59;7393374;19;20473;-64
2022/05/02 09:41:02;;;;;;;16.73;13.20;;;;;;;15.48;42.14;101948.63;7389838;19;20014;-64
2022/05/02 09:49:47;;;;;;;14.20;10.70;;;;;;;15.94;40.50;101947.38;7392737;19;20499;-63
2022/05/02 09:52:17;;;;;;;23.25;11.13;;;;;;;15.91;40.66;101938.66;7400037;19;20431;-64
2022/05/02 09:58:00;;;;;;;31.48;11.73;;;;;;;16.41;40.08;101931.78;7397968;19;20031;-64
2022/05/02 10:03:28;;;;;;;14.38;11.30;;;;;;;16.13;40.02;101932.31;7392780;19;20014;-64
2022/05/02 10:06:06;;;;;;;49.63;13.50;;;;;;;15.90;40.11;101934.34;7391553;19;20376;-64
2022/05/02 10:08:49;;;;;;;15.25;10.98;;;;;;;15.91;40.98;101927.25;7392832;19;20019;-64
2022/05/02 10:11:32;;;;;;;26.20;12.27;;;;;;;16.28;40.21;101930.69;7391609;19;20021;-64
2022/05/02 10:14:08;;;;;;;;;;;;;;;17.09;39.34;101933.56;7391482;19;20019;-64
2022/05/02 10:16:49;;;;;;;18.23;12.23;;;;;;;16.58;39.40;101924.78;7392487;19;19922;-64
2022/05/02 10:19:32;;;;;;;17.38;12.07;;;;;;;16.55;39.79;101933.72;7389070;19;20026;-64
2022/05/02 10:22:24;;;;;;;16.25;12.73;;;;;;;16.09;39.90;101933.44;7389386;19;20017;-64
2022/05/02 10:25:13;;;;;;;13.95;11.98;;;;;;;16.50;39.37;101919.88;7392668;19;20044;-64
2022/05/02 10:28:05;;;;;;;481.13;44.72;;;;;;;16.75;39.95;101922.09;7391894;19;20090;-64
2022/05/02 10:30:45;;;;;;;15.80;11.77;;;;;;;17.23;39.02;101930.16;7391018;19;20014;-63
2022/05/02 10:33:17;;;;;;;27.80;12.27;;;;;;;16.69;38.54;101925.06;7389204;19;20020;-59
2022/05/02 10:35:49;;;;;;;15.35;11.65;;;;;;;16.75;37.60;101915.97;7391558;19;20015;-58
2022/05/02 10:38:23;;;;;;;27.33;11.80;;;;;;;16.88;38.06;101919.69;7392554;19;20021;-60
2022/05/02 10:40:53;;;;;;;20.02;11.32;;;;;;;17.55;37.68;101916.94;7390844;19;20031;-55
2022/05/02 10:43:28;;;;;;;15.23;11.52;;;;;;;17.10;36.71;101910.59;7391999;19;20022;-58
2022/05/02 10:45:57;;;;;;;12.90;10.25;;;;;;;16.95;38.56;101906.97;7392665;19;20371;-63
2022/05/02 10:48:35;;;;;;;13.23;11.13;;;;;;;16.94;37.92;101899.97;7390971;19;20014;-61
2022/05/02 10:51:09;;;;;;;15.70;10.65;;;;;;;17.75;37.54;101901.69;7390867;19;20021;-62
2022/05/02 10:53:59;;;;;;;12.45;10.13;;;;;;;18.05;36.91;101893.75;7390093;19;20404;-62
2022/05/02 10:56:38;;;;;;;14.18;10.65;;;;;;;17.92;36.00;101898.09;7391653;19;20011;-63
2022/05/02 10:59:31;;;;;;;16.08;10.68;;;;;;;18.08;36.38;101895.38;7391485;19;20015;-63
2022/05/02 11:02:27;;;;;;;14.30;10.60;;;;;;;17.79;36.51;101882.88;7390986;19;20060;-63
2022/05/02 11:05:11;;;;;;;17.25;11.27;;;;;;;17.75;36.91;101877.81;7390330;19;20019;-62
2022/05/02 11:08:00;;;;;;;14.93;11.32;;;;;;;17.83;36.44;101888.00;7388901;19;20010;-62
2022/05/02 11:10:31;;;;;;;16.02;12.05;;;;;;;17.39;37.45;101881.63;7390359;19;20017;-63
2022/05/02 11:13:14;;;;;;;16.20;11.38;;;;;;;17.28;38.04;101883.09;7390783;19;20030;-65
2022/05/02 11:16:01;;;;;;;26.95;12.18;;;;;;;16.98;38.57;101876.81;7389222;19;20024;-62
2022/05/02 11:21:27;;;;;;;14.50;12.07;;;;;;;16.93;38.39;101872.63;7388430;19;20014;-65
2022/05/02 11:24:12;;;;;;;15.57;11.85;;;;;;;17.37;38.14;101871.13;7388236;19;20466;-64
2022/05/02 11:26:45;;;;;;;15.13;10.65;;;;;;;18.50;36.04;101859.28;7387969;19;20051;-63
2022/05/02 11:29:27;;;;;;;19.67;11.43;;;;;;;18.59;36.36;101857.84;7389047;19;20015;-63
2022/05/02 11:32:04;;;;;;;27.10;12.13;;;;;;;18.05;37.23;101863.75;7395035;19;20019;-63
2022/05/02 11:34:40;;;;;;;20.70;11.55;;;;;;;18.39;36.50;101854.63;7395472;19;20022;-62
2022/05/02 11:37:17;;;;;;;14.00;11.88;;;;;;;17.67;37.59;101851.75;7394359;19;20503;-63
2022/05/02 11:39:57;;;;;;;59.65;15.15;;;;;;;17.52;37.23;101857.94;7395884;19;20018;-62
2022/05/02 11:42:30;;;;;;;13.68;12.13;;;;;;;18.20;36.06;101854.88;7394478;19;20081;-63
2022/05/02 11:45:10;;;;;;;17.60;11.77;;;;;;;17.87;36.73;101852.41;7393370;19;20088;-64
2022/05/02 11:48:09;;;;;;;30.23;12.30;;;;;;;18.95;35.27;101859.19;7396459;19;20134;-63
2022/05/02 11:50:47;;;;;;;13.55;11.30;;;;;;;18.32;35.81;101858.59;7395293;19;20484;-63
2022/05/02 11:53:17;;;;;;;16.48;11.10;;;;;;;18.74;35.65;101858.69;7395858;19;20424;-63
2022/05/02 11:55:49;;;;;;;13.93;10.85;;;;;;;19.36;35.17;101853.03;7396395;19;20022;-63
2022/05/02 11:58:28;;;;;;;15.10;11.15;;;;;;;18.30;35.82;101852.53;7395899;19;20014;-63
2022/05/02 12:01:05;;;;;;;14.02;10.10;;;;;;;18.30;35.35;101852.53;7392914;19;20371;-63
2022/05/02 12:03:54;;;;;;;12.43;9.57;;;;;;;19.41;34.77;101850.91;7394169;19;20015;-62
2022/05/02 12:06:34;;;;;;;68.30;14.20;;;;;;;19.10;34.94;101847.59;7395725;19;20018;-62
2022/05/02 12:09:08;;;;;;;19.35;10.73;;;;;;;19.14;33.55;101848.25;7394982;19;20022;-66
2022/05/02 12:11:54;;;;;;;16.20;11.18;;;;;;;18.78;34.37;101844.28;7396290;19;20126;-62
2022/05/02 12:14:24;;;;;;;20.15;10.23;;;;;;;18.76;35.34;101846.19;7394450;19;20015;-62
2022/05/02 12:17:09;;;;;;;18.33;10.63;;;;;;;18.73;34.87;101841.91;7395412;19;20082;-61
2022/05/02 12:19:39;;;;;;;58.08;14.23;;;;;;;18.82;34.60;101837.84;7393359;19;20022;-61